createdAt,value
2019-02-20T00:00:42.328Z,25.85
2019-02-20T00:01:42.210Z,25.78
2019-02-20T00:02:42.447Z,25.71
2019-02-20T00:03:42.458Z,25.78
2019-02-20T00:04:42.282Z,25.80
2019-02-20T00:05:42.332Z,25.80
2019-02-20T00:06:42.422Z,25.67
2019-02-20T00:07:42.429Z,25.68
2019-02-20T00:08:42.339Z,25.59
2019-02-20T00:09:42.405Z,25.56
2019-02-20T00:10:42.389Z,25.52
2019-02-20T00:11:42.445Z,25.51
2019-02-20T00:12:42.628Z,25.49
2019-02-20T00:13:42.427Z,25.36
2019-02-20T00:14:42.452Z,25.48
2019-02-20T00:15:42.579Z,25.46
2019-02-20T00:16:42.484Z,25.46
2019-02-20T00:17:42.596Z,25.43
2019-02-20T00:18:42.514Z,25.41
2019-02-20T00:19:42.655Z,25.52
2019-02-20T00:20:42.549Z,25.56
2019-02-20T00:21:42.699Z,25.61
2019-02-20T00:22:42.672Z,25.68
2019-02-20T00:23:42.741Z,25.66
2019-02-20T00:24:42.620Z,25.67
2019-02-20T00:25:42.644Z,25.73
2019-02-20T00:26:42.666Z,25.76
2019-02-20T00:27:42.688Z,25.85
2019-02-20T00:28:42.981Z,25.77
2019-02-20T00:29:42.831Z,25.77
2019-02-20T00:30:42.859Z,25.71
2019-02-20T00:31:42.747Z,25.77
2019-02-20T00:32:42.888Z,25.74
2019-02-20T00:33:43.058Z,25.70
2019-02-20T00:34:42.813Z,25.63
2019-02-20T00:35:42.947Z,25.59
2019-02-20T00:36:42.949Z,25.51
2019-02-20T00:37:42.977Z,25.37
2019-02-20T00:38:42.976Z,25.48
2019-02-20T00:39:42.891Z,25.30
2019-02-20T00:40:42.928Z,25.31
2019-02-20T00:41:42.922Z,25.26
2019-02-20T00:42:42.981Z,25.29
2019-02-20T00:43:43.180Z,25.29
2019-02-20T00:44:43.103Z,25.26
2019-02-20T00:45:43.128Z,25.33
2019-02-20T00:46:43.014Z,25.33
2019-02-20T00:47:43.033Z,25.21
2019-02-20T00:48:43.163Z,25.15
2019-02-20T00:49:43.180Z,25.19
2019-02-20T00:50:43.100Z,25.15
2019-02-20T00:51:43.096Z,24.99
2019-02-20T00:52:49.598Z,24.94
2019-02-20T00:53:43.270Z,24.97
2019-02-20T00:54:43.153Z,24.89
2019-02-20T00:55:43.287Z,24.93
2019-02-20T00:56:43.341Z,24.85
2019-02-20T00:57:43.331Z,24.88
2019-02-20T00:58:43.395Z,24.86
2019-02-20T00:59:43.357Z,24.84
2019-02-20T01:00:43.378Z,24.82
2019-02-20T01:01:43.287Z,24.69
2019-02-20T01:02:43.313Z,24.77
2019-02-20T01:03:43.592Z,24.77
2019-02-20T01:04:43.441Z,24.61
2019-02-20T01:05:43.459Z,24.55
2019-02-20T01:06:45.328Z,24.66
2019-02-20T01:07:43.496Z,24.61
2019-02-20T01:08:43.670Z,24.56
2019-02-20T01:09:43.422Z,24.46
2019-02-20T01:10:43.444Z,24.40
2019-02-20T01:11:43.445Z,24.34
2019-02-20T01:12:43.464Z,24.37
2019-02-20T01:13:43.703Z,24.28
2019-02-20T01:14:43.609Z,24.29
2019-02-20T01:15:43.636Z,24.19
2019-02-20T01:16:43.539Z,24.18
2019-02-20T01:17:43.542Z,24.21
2019-02-20T01:18:43.712Z,24.18
2019-02-20T01:19:43.708Z,24.10
2019-02-20T01:20:43.722Z,24.09
2019-02-20T01:21:43.728Z,23.96
2019-02-20T01:22:43.632Z,24.00
2019-02-20T01:23:43.924Z,23.92
2019-02-20T01:24:43.676Z,23.92
2019-02-20T01:25:43.682Z,23.76
2019-02-20T01:26:43.705Z,23.81
2019-02-20T01:27:43.714Z,23.88
2019-02-20T01:28:44.008Z,23.77
2019-02-20T01:29:43.863Z,23.73
2019-02-20T01:30:43.769Z,23.67
2019-02-20T01:31:43.778Z,23.69
2019-02-20T01:32:43.921Z,23.62
2019-02-20T01:33:43.932Z,23.64
2019-02-20T01:34:44.108Z,23.58
2019-02-20T01:35:43.985Z,23.62
2019-02-20T01:36:43.866Z,23.58
2019-02-20T01:37:44.009Z,23.64
2019-02-20T01:38:43.890Z,23.55
2019-02-20T01:39:44.027Z,23.56
2019-02-20T01:40:43.972Z,23.42
2019-02-20T01:41:44.061Z,23.49
2019-02-20T01:42:43.963Z,23.47
2019-02-20T01:43:44.001Z,23.48
2019-02-20T01:44:44.163Z,23.40
2019-02-20T01:45:44.017Z,23.26
2019-02-20T01:46:44.028Z,23.39
2019-02-20T01:47:44.166Z,23.32
2019-02-20T01:48:44.180Z,23.36
2019-02-20T01:49:44.210Z,23.32
2019-02-20T01:50:44.223Z,23.29
2019-02-20T01:51:45.061Z,23.36
2019-02-20T01:52:44.345Z,23.34
2019-02-20T01:53:44.141Z,23.32
2019-02-20T01:54:44.285Z,23.40
2019-02-20T01:55:44.166Z,23.40
2019-02-20T01:56:44.326Z,23.33
2019-02-20T01:57:44.264Z,23.29
2019-02-20T01:58:44.369Z,23.32
2019-02-20T01:59:44.361Z,23.21
2019-02-20T02:00:44.391Z,23.25
2019-02-20T02:01:44.284Z,23.21
2019-02-20T02:02:44.518Z,23.13
2019-02-20T02:03:44.433Z,23.25
2019-02-20T02:04:44.333Z,23.21
2019-02-20T02:05:44.343Z,23.26
2019-02-20T02:06:44.344Z,23.07
2019-02-20T02:07:44.535Z,23.13
2019-02-20T02:08:44.516Z,23.11
2019-02-20T02:09:44.435Z,23.16
2019-02-20T02:10:44.432Z,23.07
2019-02-20T02:11:44.488Z,23.06
2019-02-20T02:12:44.679Z,23.06
2019-02-20T02:13:44.482Z,23.13
2019-02-20T02:14:44.609Z,23.17
2019-02-20T02:15:44.513Z,23.18
2019-02-20T02:16:44.654Z,23.20
2019-02-20T02:17:44.650Z,23.21
2019-02-20T02:18:44.678Z,23.25
2019-02-20T02:19:44.575Z,23.33
2019-02-20T02:20:44.716Z,23.32
2019-02-20T02:21:44.610Z,23.26
2019-02-20T02:22:44.905Z,23.32
2019-02-20T02:23:44.771Z,23.33
2019-02-20T02:24:44.792Z,23.29
2019-02-20T02:25:44.804Z,23.37
2019-02-20T02:26:44.706Z,23.37
2019-02-20T02:27:44.872Z,23.39
2019-02-20T02:28:44.850Z,23.47
2019-02-20T02:29:44.869Z,23.44
2019-02-20T02:30:44.754Z,23.47
2019-02-20T02:31:44.784Z,23.48
2019-02-20T02:32:45.017Z,23.48
2019-02-20T02:33:44.939Z,23.42
2019-02-20T02:34:44.816Z,23.39
2019-02-20T02:35:44.983Z,23.40
2019-02-20T02:36:44.982Z,23.40
2019-02-20T02:37:45.095Z,23.34
2019-02-20T02:38:44.895Z,23.17
2019-02-20T02:39:45.022Z,23.17
2019-02-20T02:40:45.052Z,23.17
2019-02-20T02:41:45.069Z,23.17
2019-02-20T02:42:45.076Z,23.17
2019-02-20T02:43:45.006Z,23.07
2019-02-20T02:44:44.988Z,23.16
2019-02-20T02:45:45.134Z,23.11
2019-02-20T02:46:45.148Z,23.11
2019-02-20T02:47:45.205Z,23.14
2019-02-20T02:48:45.169Z,23.17
2019-02-20T02:49:45.194Z,23.16
2019-02-20T02:50:45.217Z,23.11
2019-02-20T02:51:45.107Z,23.23
2019-02-20T02:52:45.289Z,23.21
2019-02-20T02:53:45.257Z,23.29
2019-02-20T02:54:45.271Z,23.33
2019-02-20T02:55:45.295Z,23.34
2019-02-20T02:56:45.189Z,23.37
2019-02-20T02:57:45.330Z,23.47
2019-02-20T02:58:45.346Z,23.49
2019-02-20T02:59:45.412Z,23.51
2019-02-20T03:00:45.291Z,23.55
2019-02-20T03:01:45.269Z,23.58
2019-02-20T03:02:45.565Z,23.70
2019-02-20T03:03:45.326Z,23.64
2019-02-20T03:04:45.449Z,23.64
2019-02-20T03:05:45.453Z,23.69
2019-02-20T03:06:45.380Z,23.63
2019-02-20T03:07:45.430Z,23.66
2019-02-20T03:08:45.382Z,23.64
2019-02-20T03:09:45.409Z,23.67
2019-02-20T03:10:45.652Z,23.64
2019-02-20T03:11:45.445Z,23.66
2019-02-20T03:12:45.582Z,23.58
2019-02-20T03:13:45.593Z,23.63
2019-02-20T03:14:45.601Z,23.54
2019-02-20T03:15:45.546Z,23.55
2019-02-20T03:16:45.644Z,23.55
2019-02-20T03:17:45.662Z,23.59
2019-02-20T03:18:45.678Z,23.55
2019-02-20T03:19:45.568Z,23.47
2019-02-20T03:20:45.800Z,23.49
2019-02-20T03:21:45.623Z,23.47
2019-02-20T03:22:45.732Z,23.47
2019-02-20T03:23:45.750Z,23.37
2019-02-20T03:24:45.654Z,23.33
2019-02-20T03:25:45.823Z,23.32
2019-02-20T03:26:45.683Z,23.32
2019-02-20T03:27:45.816Z,23.42
2019-02-20T03:28:45.717Z,23.42
2019-02-20T03:29:45.750Z,23.34
2019-02-20T03:30:46.061Z,23.36
2019-02-20T03:31:45.885Z,23.40
2019-02-20T03:32:45.789Z,23.32
2019-02-20T03:33:45.814Z,23.36
2019-02-20T03:34:45.813Z,23.39
2019-02-20T03:35:46.014Z,23.28
2019-02-20T03:36:45.968Z,23.36
2019-02-20T03:37:45.867Z,23.32
2019-02-20T03:38:45.893Z,23.34
2019-02-20T03:39:46.026Z,23.37
2019-02-20T03:40:46.068Z,23.36
2019-02-20T03:41:46.060Z,23.32
2019-02-20T03:42:45.957Z,23.33
2019-02-20T03:43:45.969Z,23.37
2019-02-20T03:44:46.098Z,23.39
2019-02-20T03:45:46.227Z,23.51
2019-02-20T03:46:46.149Z,23.45
2019-02-20T03:47:46.045Z,23.48
2019-02-20T03:48:46.164Z,23.51
2019-02-20T03:49:46.192Z,23.55
2019-02-20T03:50:46.063Z,23.58
2019-02-20T03:51:46.246Z,23.58
2019-02-20T03:52:46.114Z,23.55
2019-02-20T03:53:51.554Z,23.63
2019-02-20T03:54:46.274Z,23.63
2019-02-20T03:55:46.291Z,23.62
2019-02-20T03:56:46.458Z,23.67
2019-02-20T03:57:46.313Z,23.58
2019-02-20T03:58:46.212Z,23.62
2019-02-20T03:59:46.357Z,23.55
2019-02-20T04:00:46.374Z,23.58
2019-02-20T04:01:46.550Z,23.55
2019-02-20T04:02:46.331Z,23.56
2019-02-20T04:03:46.422Z,23.58
2019-02-20T04:04:46.319Z,23.51
2019-02-20T04:05:46.445Z,23.49
2019-02-20T04:06:46.496Z,23.56
2019-02-20T04:07:46.479Z,23.48
2019-02-20T04:08:46.377Z,23.49
2019-02-20T04:09:46.422Z,23.56
2019-02-20T04:10:46.407Z,23.59
2019-02-20T04:11:46.646Z,23.62
2019-02-20T04:12:46.574Z,23.54
2019-02-20T04:13:46.456Z,23.63
2019-02-20T04:14:46.483Z,23.56
2019-02-20T04:15:46.647Z,23.62
2019-02-20T04:16:46.738Z,23.55
2019-02-20T04:17:46.653Z,23.62
2019-02-20T04:18:46.543Z,23.59
2019-02-20T04:19:46.586Z,23.55
2019-02-20T04:20:46.645Z,23.54
2019-02-20T04:21:46.735Z,23.55
2019-02-20T04:22:46.737Z,23.64
2019-02-20T04:23:46.752Z,23.58
2019-02-20T04:24:46.639Z,23.55
2019-02-20T04:25:46.787Z,23.66
2019-02-20T04:26:46.777Z,23.63
2019-02-20T04:27:46.681Z,23.63
2019-02-20T04:28:46.719Z,23.66
2019-02-20T04:29:46.721Z,23.70
2019-02-20T04:30:46.876Z,23.70
2019-02-20T04:31:46.982Z,23.64
2019-02-20T04:32:46.888Z,23.63
2019-02-20T04:33:46.779Z,23.70
2019-02-20T04:34:46.817Z,23.73
2019-02-20T04:35:46.828Z,23.73
2019-02-20T04:36:47.123Z,23.84
2019-02-20T04:37:46.854Z,23.85
2019-02-20T04:38:46.876Z,23.79
2019-02-20T04:39:47.016Z,23.82
2019-02-20T04:40:46.909Z,23.79
2019-02-20T04:41:47.096Z,23.82
2019-02-20T04:42:47.066Z,23.82
2019-02-20T04:43:47.080Z,23.84
2019-02-20T04:44:47.097Z,23.82
2019-02-20T04:45:46.994Z,23.82
2019-02-20T04:46:47.172Z,23.79
2019-02-20T04:47:47.018Z,23.77
2019-02-20T04:48:47.162Z,23.77
2019-02-20T04:49:47.068Z,23.84
2019-02-20T04:50:47.186Z,23.88
2019-02-20T04:51:47.352Z,23.89
2019-02-20T04:52:47.231Z,23.82
2019-02-20T04:53:47.259Z,23.85
2019-02-20T04:54:47.149Z,23.91
2019-02-20T04:55:47.282Z,23.94
2019-02-20T04:56:47.324Z,23.89
2019-02-20T04:57:47.204Z,24.04
2019-02-20T04:58:47.220Z,24.01
2019-02-20T04:59:47.345Z,23.99
2019-02-20T05:00:47.363Z,23.95
2019-02-20T05:01:47.528Z,24.03
2019-02-20T05:02:47.390Z,24.04
2019-02-20T05:03:47.304Z,23.94
2019-02-20T05:04:47.319Z,23.92
2019-02-20T05:05:47.339Z,23.89
2019-02-20T05:06:47.447Z,23.92
2019-02-20T05:07:47.485Z,23.89
2019-02-20T05:08:47.497Z,23.89
2019-02-20T05:09:47.386Z,23.84
2019-02-20T05:10:47.415Z,23.89
2019-02-20T05:11:47.510Z,23.91
2019-02-20T05:12:47.434Z,23.91
2019-02-20T05:13:47.452Z,23.92
2019-02-20T05:14:47.480Z,23.84
2019-02-20T05:15:47.485Z,23.86
2019-02-20T05:16:47.670Z,23.91
2019-02-20T05:17:47.571Z,23.91
2019-02-20T05:18:47.539Z,23.84
2019-02-20T05:19:47.565Z,23.88
2019-02-20T05:20:47.686Z,23.92
2019-02-20T05:21:47.743Z,23.92
2019-02-20T05:22:47.729Z,23.84
2019-02-20T05:23:47.637Z,23.84
2019-02-20T05:24:47.747Z,23.84
2019-02-20T05:25:47.772Z,23.84
2019-02-20T05:26:47.961Z,23.82
2019-02-20T05:27:47.687Z,23.79
2019-02-20T05:28:47.810Z,23.84
2019-02-20T05:29:47.833Z,23.84
2019-02-20T05:30:47.728Z,23.84
2019-02-20T05:31:48.030Z,23.86
2019-02-20T05:32:47.891Z,23.82
2019-02-20T05:33:47.784Z,23.82
2019-02-20T05:34:47.914Z,23.85
2019-02-20T05:35:47.939Z,23.85
2019-02-20T05:36:47.975Z,23.81
2019-02-20T05:37:47.962Z,23.79
2019-02-20T05:38:47.985Z,23.79
2019-02-20T05:39:47.883Z,23.81
2019-02-20T05:40:48.022Z,23.76
2019-02-20T05:41:48.184Z,23.77
2019-02-20T05:42:48.429Z,23.77
2019-02-20T05:43:47.965Z,23.73
2019-02-20T05:44:47.963Z,23.74
2019-02-20T05:45:48.108Z,23.69
2019-02-20T05:46:48.100Z,23.71
2019-02-20T05:47:48.129Z,23.73
2019-02-20T05:48:48.035Z,23.70
2019-02-20T05:49:48.047Z,23.59
2019-02-20T05:50:48.190Z,23.69
2019-02-20T05:51:48.077Z,23.67
2019-02-20T05:52:48.254Z,23.66
2019-02-20T05:53:48.228Z,23.56
2019-02-20T05:54:48.155Z,23.59
2019-02-20T05:55:48.277Z,23.56
2019-02-20T05:56:48.196Z,23.58
2019-02-20T05:57:48.452Z,23.58
2019-02-20T05:58:48.250Z,23.58
2019-02-20T05:59:48.324Z,23.62
2019-02-20T06:00:48.232Z,23.63
2019-02-20T06:01:48.307Z,23.62
2019-02-20T06:02:48.534Z,23.59
2019-02-20T06:03:48.266Z,23.62
2019-02-20T06:04:48.421Z,23.62
2019-02-20T06:05:48.422Z,23.58
2019-02-20T06:06:48.312Z,23.56
2019-02-20T06:07:48.504Z,23.55
2019-02-20T06:08:48.472Z,23.56
2019-02-20T06:09:48.501Z,23.55
2019-02-20T06:10:48.565Z,23.52
2019-02-20T06:11:48.520Z,23.51
2019-02-20T06:12:48.538Z,23.49
2019-02-20T06:13:48.448Z,23.58
2019-02-20T06:14:48.462Z,23.56
2019-02-20T06:15:48.750Z,23.56
2019-02-20T06:16:48.597Z,23.56
2019-02-20T06:17:48.613Z,23.52
2019-02-20T06:18:48.654Z,23.49
2019-02-20T06:19:48.535Z,23.45
2019-02-20T06:20:48.658Z,23.48
2019-02-20T06:21:48.709Z,23.45
2019-02-20T06:22:48.583Z,23.45
2019-02-20T06:23:48.734Z,23.44
2019-02-20T06:24:48.737Z,23.51
2019-02-20T06:25:48.744Z,23.48
2019-02-20T06:26:48.776Z,23.45
2019-02-20T06:27:48.813Z,23.48
2019-02-20T06:28:48.691Z,23.47
2019-02-20T06:29:48.703Z,23.48
2019-02-20T06:30:48.940Z,23.48
2019-02-20T06:31:48.842Z,23.45
2019-02-20T06:32:48.874Z,23.39
2019-02-20T06:33:48.885Z,23.39
2019-02-20T06:34:48.773Z,23.29
2019-02-20T06:35:48.891Z,23.29
2019-02-20T06:36:48.819Z,23.32
2019-02-20T06:37:48.952Z,23.36
2019-02-20T06:38:48.853Z,23.33
2019-02-20T06:39:48.973Z,23.37
2019-02-20T06:40:48.983Z,23.42
2019-02-20T06:41:48.906Z,23.42
2019-02-20T06:42:49.031Z,23.37
2019-02-20T06:43:49.034Z,23.42
2019-02-20T06:44:48.941Z,23.33
2019-02-20T06:45:49.017Z,23.32
2019-02-20T06:46:49.086Z,23.37
2019-02-20T06:47:48.990Z,23.34
2019-02-20T06:48:49.129Z,23.32
2019-02-20T06:49:49.149Z,23.32
2019-02-20T06:50:49.266Z,23.29
2019-02-20T06:51:49.175Z,23.32
2019-02-20T06:52:49.069Z,23.29
2019-02-20T06:53:49.208Z,23.29
2019-02-20T06:54:54.004Z,23.40
2019-02-20T06:55:49.113Z,23.42
2019-02-20T06:56:50.270Z,23.39
2019-02-20T06:57:49.150Z,23.42
2019-02-20T06:58:49.185Z,23.42
2019-02-20T06:59:49.310Z,23.40
2019-02-20T07:00:49.197Z,23.44
2019-02-20T07:01:49.387Z,23.48
2019-02-20T07:02:49.236Z,23.45
2019-02-20T07:03:49.238Z,23.47
2019-02-20T07:04:49.263Z,23.47
2019-02-20T07:05:49.279Z,23.49
2019-02-20T07:06:49.557Z,23.48
2019-02-20T07:07:49.429Z,23.42
2019-02-20T07:08:49.323Z,23.47
2019-02-20T07:09:49.467Z,23.42
2019-02-20T07:10:49.490Z,23.48
2019-02-20T07:11:49.526Z,23.44
2019-02-20T07:12:49.401Z,23.44
2019-02-20T07:13:49.405Z,23.49
2019-02-20T07:14:49.552Z,23.48
2019-02-20T07:15:49.568Z,23.45
2019-02-20T07:16:49.609Z,23.44
2019-02-20T07:17:49.463Z,23.45
2019-02-20T07:18:49.602Z,23.45
2019-02-20T07:19:49.510Z,23.47
2019-02-20T07:20:49.532Z,23.51
2019-02-20T07:21:49.761Z,23.49
2019-02-20T07:22:49.678Z,23.45
2019-02-20T07:23:49.588Z,23.51
2019-02-20T07:24:49.585Z,23.52
2019-02-20T07:25:49.730Z,23.47
2019-02-20T07:26:49.761Z,23.55
2019-02-20T07:27:49.642Z,23.54
2019-02-20T07:28:49.646Z,23.56
2019-02-20T07:29:49.782Z,23.51
2019-02-20T07:30:49.806Z,23.54
2019-02-20T07:31:49.765Z,23.56
2019-02-20T07:32:49.728Z,23.49
2019-02-20T07:33:49.726Z,23.51
2019-02-20T07:34:49.799Z,23.47
2019-02-20T07:35:49.917Z,23.45
2019-02-20T07:36:49.891Z,23.45
2019-02-20T07:37:49.921Z,23.47
2019-02-20T07:38:49.804Z,23.42
2019-02-20T07:39:49.950Z,23.37
2019-02-20T07:40:50.061Z,23.39
2019-02-20T07:41:49.864Z,23.42
2019-02-20T07:42:49.877Z,23.34
2019-02-20T07:43:49.887Z,23.34
2019-02-20T07:44:49.898Z,23.29
2019-02-20T07:45:50.028Z,23.20
2019-02-20T07:46:50.066Z,23.20
2019-02-20T07:47:49.957Z,23.25
2019-02-20T07:48:50.086Z,23.16
2019-02-20T07:49:50.034Z,23.18
2019-02-20T07:50:50.093Z,23.10
2019-02-20T07:51:50.136Z,23.08
2019-02-20T07:52:50.298Z,23.11
2019-02-20T07:53:50.048Z,23.04
2019-02-20T07:54:50.074Z,23.08
2019-02-20T07:55:50.199Z,23.04
2019-02-20T07:56:50.211Z,22.96
2019-02-20T07:57:50.227Z,23.02
2019-02-20T07:58:50.137Z,22.96
2019-02-20T07:59:50.266Z,22.88
2019-02-20T08:00:50.204Z,22.95
2019-02-20T08:01:50.195Z,22.88
2019-02-20T08:02:50.471Z,22.83
2019-02-20T08:03:50.344Z,22.80
2019-02-20T08:04:50.223Z,22.78
2019-02-20T08:05:50.367Z,22.76
2019-02-20T08:06:50.334Z,22.74
2019-02-20T08:07:50.324Z,22.74
2019-02-20T08:08:50.294Z,22.73
2019-02-20T08:09:50.425Z,22.73
2019-02-20T08:10:50.391Z,22.70
2019-02-20T08:11:50.349Z,22.68
2019-02-20T08:12:50.565Z,22.65
2019-02-20T08:13:50.480Z,22.67
2019-02-20T08:14:50.390Z,22.59
2019-02-20T08:15:50.397Z,22.62
2019-02-20T08:16:52.572Z,22.68
2019-02-20T08:17:50.481Z,22.62
2019-02-20T08:18:50.573Z,22.56
2019-02-20T08:19:50.584Z,22.52
2019-02-20T08:20:50.522Z,22.61
2019-02-20T08:21:50.628Z,22.55
2019-02-20T08:22:50.575Z,22.51
2019-02-20T08:23:50.548Z,22.59
2019-02-20T08:24:50.662Z,22.52
2019-02-20T08:25:50.548Z,22.56
2019-02-20T08:26:50.580Z,22.46
2019-02-20T08:27:50.652Z,22.49
2019-02-20T08:28:50.605Z,22.51
2019-02-20T08:29:50.623Z,22.44
2019-02-20T08:30:50.627Z,22.41
2019-02-20T08:31:50.655Z,22.40
2019-02-20T08:32:50.758Z,22.46
2019-02-20T08:33:50.802Z,22.43
2019-02-20T08:35:50.843Z,22.47
2019-02-20T08:36:50.855Z,22.41
2019-02-20T08:37:50.861Z,22.37
2019-02-20T08:38:50.911Z,22.44
2019-02-20T08:39:50.919Z,22.40
2019-02-20T08:40:50.805Z,22.40
2019-02-20T08:41:50.802Z,22.40
2019-02-20T08:42:50.952Z,22.41
2019-02-20T08:43:50.977Z,22.44
2019-02-20T08:44:50.945Z,22.52
2019-02-20T08:45:51.001Z,22.41
2019-02-20T08:46:50.891Z,22.37
2019-02-20T08:47:50.919Z,22.46
2019-02-20T08:48:51.037Z,22.46
2019-02-20T08:49:51.076Z,22.36
2019-02-20T08:50:50.960Z,22.40
2019-02-20T08:51:50.967Z,22.47
2019-02-20T08:52:51.095Z,22.47
2019-02-20T08:53:51.003Z,22.34
2019-02-20T08:54:51.119Z,22.31
2019-02-20T08:55:51.150Z,22.33
2019-02-20T08:56:51.167Z,22.41
2019-02-20T08:57:51.084Z,22.30
2019-02-20T08:58:51.202Z,22.30
2019-02-20T08:59:51.787Z,22.33
2019-02-20T09:00:51.112Z,22.33
2019-02-20T09:01:51.237Z,22.36
2019-02-20T09:02:51.256Z,22.37
2019-02-20T09:03:51.268Z,22.37
2019-02-20T09:04:51.444Z,22.31
2019-02-20T09:05:51.311Z,22.30
2019-02-20T09:06:51.335Z,22.31
2019-02-20T09:07:51.337Z,22.30
2019-02-20T09:08:51.348Z,22.33
2019-02-20T09:09:51.530Z,22.36
2019-02-20T09:10:51.284Z,22.36
2019-02-20T09:11:51.408Z,22.31
2019-02-20T09:12:51.306Z,22.43
2019-02-20T09:13:51.438Z,22.43
2019-02-20T09:14:51.507Z,22.38
2019-02-20T09:15:51.341Z,22.43
2019-02-20T09:16:51.369Z,22.36
2019-02-20T09:17:51.503Z,22.43
2019-02-20T09:18:51.519Z,22.62
2019-02-20T09:19:51.559Z,22.73
2019-02-20T09:20:51.548Z,22.78
2019-02-20T09:21:51.434Z,22.76
2019-02-20T09:22:51.454Z,22.80
2019-02-20T09:23:51.488Z,22.84
2019-02-20T09:24:51.772Z,22.86
2019-02-20T09:25:51.502Z,22.91
2019-02-20T09:26:51.542Z,22.98
2019-02-20T09:27:51.672Z,23.08
2019-02-20T09:28:51.679Z,23.25
2019-02-20T09:29:51.796Z,23.48
2019-02-20T09:30:51.584Z,23.70
2019-02-20T09:31:51.730Z,24.03
2019-02-20T09:32:51.631Z,24.29
2019-02-20T09:33:51.757Z,24.46
2019-02-20T09:34:51.871Z,24.61
2019-02-20T09:35:51.663Z,24.96
2019-02-20T09:36:51.797Z,25.09
2019-02-20T09:37:51.812Z,25.18
2019-02-20T09:38:51.846Z,25.15
2019-02-20T09:39:51.785Z,24.96
2019-02-20T09:40:51.758Z,24.97
2019-02-20T09:41:51.772Z,24.99
2019-02-20T09:42:51.786Z,25.18
2019-02-20T09:43:51.920Z,25.29
2019-02-20T09:44:51.978Z,25.52
2019-02-20T09:45:51.893Z,25.78
2019-02-20T09:46:51.867Z,25.81
2019-02-20T09:47:51.863Z,25.83
2019-02-20T09:48:52.019Z,25.73
2019-02-20T09:49:52.054Z,25.73
2019-02-20T09:50:51.966Z,25.55
2019-02-20T09:51:52.060Z,25.48
2019-02-20T09:52:52.913Z,25.26
2019-02-20T09:53:51.977Z,25.15
2019-02-20T09:54:52.070Z,25.21
2019-02-20T09:55:52.110Z,25.56
2019-02-20T09:56:52.044Z,25.86
2019-02-20T09:57:52.039Z,26.34
2019-02-20T09:58:52.088Z,26.92
2019-02-20T09:59:52.317Z,27.38
2019-02-20T10:00:52.118Z,27.82
2019-02-20T10:01:52.133Z,28.20
2019-02-20T10:02:52.165Z,28.64
2019-02-20T10:03:52.288Z,28.97
2019-02-20T10:04:52.282Z,29.46
2019-02-20T10:05:52.223Z,29.74
2019-02-20T10:06:52.337Z,29.89
2019-02-20T10:07:52.366Z,29.98
2019-02-20T10:08:52.278Z,30.17
2019-02-20T10:09:52.380Z,30.33
2019-02-20T10:10:52.313Z,30.65
2019-02-20T10:11:52.452Z,30.73
2019-02-20T10:12:52.338Z,30.86
2019-02-20T10:13:52.488Z,31.11
2019-02-20T10:14:52.529Z,31.30
2019-02-20T10:15:52.394Z,31.60
2019-02-20T10:16:52.546Z,31.87
2019-02-20T10:17:52.571Z,31.72
2019-02-20T10:18:52.471Z,31.90
2019-02-20T10:19:52.670Z,31.98
2019-02-20T10:20:52.510Z,32.04
2019-02-20T10:21:52.658Z,31.86
2019-02-20T10:22:52.544Z,31.79
2019-02-20T10:23:52.705Z,31.82
2019-02-20T10:24:52.823Z,31.97
2019-02-20T10:26:00.478Z,32.12
2019-02-20T10:27:00.336Z,32.38
2019-02-20T10:27:52.773Z,32.54
2019-02-20T10:28:54.086Z,32.79
2019-02-20T10:29:52.930Z,32.91
2019-02-20T10:30:52.851Z,33.17
2019-02-20T10:31:52.750Z,33.36
2019-02-20T10:32:52.884Z,33.70
2019-02-20T10:33:52.924Z,33.95
2019-02-20T10:34:52.918Z,34.00
2019-02-20T10:35:52.831Z,33.98
2019-02-20T10:36:52.976Z,34.00
2019-02-20T10:37:53.081Z,34.00
2019-02-20T10:38:53.034Z,33.73
2019-02-20T10:39:53.025Z,33.63
2019-02-20T10:40:53.077Z,33.54
2019-02-20T10:41:52.980Z,33.09
2019-02-20T10:42:52.991Z,32.64
2019-02-20T10:43:53.030Z,32.37
2019-02-20T10:44:53.309Z,32.00
2019-02-20T10:45:53.197Z,31.87
2019-02-20T10:46:53.206Z,31.87
2019-02-20T10:47:53.120Z,32.04
2019-02-20T10:48:53.259Z,32.26
2019-02-20T10:49:53.322Z,32.56
2019-02-20T10:50:53.162Z,32.82
2019-02-20T10:51:53.200Z,33.09
2019-02-20T10:52:53.351Z,33.05
2019-02-20T10:53:53.360Z,32.94
2019-02-20T10:54:57.695Z,32.90
2019-02-20T10:55:53.418Z,32.88
2019-02-20T10:56:53.425Z,32.91
2019-02-20T10:57:53.452Z,32.83
2019-02-20T10:58:53.359Z,32.73
2019-02-20T10:59:53.484Z,32.90
2019-02-20T11:00:53.411Z,32.90
2019-02-20T11:01:53.428Z,32.82
2019-02-20T11:02:53.578Z,32.90
2019-02-20T11:03:53.598Z,33.03
2019-02-20T11:04:53.569Z,33.10
2019-02-20T11:05:53.627Z,32.98
2019-02-20T11:06:53.553Z,32.93
2019-02-20T11:07:53.553Z,33.22
2019-02-20T11:08:53.622Z,33.08
2019-02-20T11:09:53.818Z,32.75
2019-02-20T11:10:53.635Z,32.54
2019-02-20T11:11:54.494Z,32.24
2019-02-20T11:12:53.800Z,31.97
2019-02-20T11:13:53.751Z,32.05
2019-02-20T11:14:53.896Z,32.44
2019-02-20T11:15:53.865Z,32.76
2019-02-20T11:16:53.770Z,33.22
2019-02-20T11:17:53.836Z,33.66
2019-02-20T11:18:53.810Z,34.09
2019-02-20T11:19:53.996Z,34.47
2019-02-20T11:21:54.008Z,34.97
2019-02-20T11:22:53.899Z,35.19
2019-02-20T11:23:54.039Z,35.16
2019-02-20T11:24:54.034Z,35.07
2019-02-20T11:25:53.968Z,35.08
2019-02-20T11:26:55.261Z,35.23
2019-02-20T11:27:54.136Z,35.27
2019-02-20T11:28:54.038Z,35.53
2019-02-20T11:29:54.113Z,35.82
2019-02-20T11:30:54.093Z,36.16
2019-02-20T11:31:54.124Z,36.48
2019-02-20T11:32:54.135Z,36.89
2019-02-20T11:33:54.149Z,37.36
2019-02-20T11:34:54.362Z,37.53
2019-02-20T11:35:54.199Z,37.56
2019-02-20T11:36:54.248Z,37.54
2019-02-20T11:37:54.376Z,37.68
2019-02-20T11:38:54.421Z,37.86
2019-02-20T11:39:54.313Z,38.04
2019-02-20T11:40:54.341Z,37.72
2019-02-20T11:41:54.485Z,37.25
2019-02-20T11:42:54.676Z,37.34
2019-02-20T11:43:54.533Z,37.00
2019-02-20T11:44:54.573Z,37.14
2019-02-20T11:45:54.599Z,37.43
2019-02-20T11:46:54.626Z,37.71
2019-02-20T11:47:54.789Z,37.82
2019-02-20T11:48:54.677Z,37.61
2019-02-20T11:49:54.570Z,37.48
2019-02-20T11:50:54.602Z,37.56
2019-02-20T11:51:54.626Z,37.54
2019-02-20T11:52:54.867Z,37.40
2019-02-20T11:53:54.795Z,37.43
2019-02-20T11:54:54.701Z,37.72
2019-02-20T11:55:54.864Z,37.85
2019-02-20T11:56:54.762Z,37.88
2019-02-20T11:58:00.484Z,37.83
2019-02-20T11:58:54.815Z,38.13
2019-02-20T11:59:54.965Z,38.41
2019-02-20T12:00:54.989Z,39.00
2019-02-20T12:01:54.887Z,39.37
2019-02-20T12:02:55.020Z,39.52
2019-02-20T12:03:54.959Z,39.12
2019-02-20T12:04:55.106Z,39.17
2019-02-20T12:05:54.994Z,39.15
2019-02-20T12:06:55.157Z,39.12
2019-02-20T12:07:55.209Z,39.17
2019-02-20T12:08:55.689Z,39.38
2019-02-20T12:09:55.235Z,39.57
2019-02-20T12:10:55.251Z,39.04
2019-02-20T12:11:55.286Z,38.98
2019-02-20T12:12:55.340Z,39.30
2019-02-20T12:13:55.344Z,39.52
2019-02-20T12:14:55.234Z,39.60
2019-02-20T12:15:55.402Z,39.66
2019-02-20T12:16:55.299Z,39.75
2019-02-20T12:17:55.442Z,39.82
2019-02-20T12:18:55.476Z,40.19
2019-02-20T12:19:55.382Z,40.22
2019-02-20T12:20:55.411Z,38.96
2019-02-20T12:21:55.439Z,38.69
2019-02-20T12:22:55.499Z,38.63
2019-02-20T12:23:55.507Z,38.88
2019-02-20T12:24:55.534Z,39.22
2019-02-20T12:25:55.670Z,39.04
2019-02-20T12:26:55.700Z,38.34
2019-02-20T12:27:55.727Z,38.01
2019-02-20T12:28:55.857Z,37.90
2019-02-20T12:29:55.779Z,37.71
2019-02-20T12:30:55.681Z,37.91
2019-02-20T12:31:55.844Z,38.56
2019-02-20T12:32:55.740Z,38.95
2019-02-20T12:33:55.777Z,39.59
2019-02-20T12:34:55.850Z,39.78
2019-02-20T12:35:55.832Z,39.85
2019-02-20T12:36:55.864Z,39.64
2019-02-20T12:37:55.896Z,39.75
2019-02-20T12:38:55.901Z,39.78
2019-02-20T12:39:56.100Z,39.76
2019-02-20T12:40:56.087Z,38.44
2019-02-20T12:41:55.992Z,37.28
2019-02-20T12:42:56.145Z,36.38
2019-02-20T12:43:56.261Z,35.87
2019-02-20T12:44:56.072Z,35.94
2019-02-20T12:45:56.223Z,36.26
2019-02-20T12:46:56.126Z,36.16
2019-02-20T12:47:56.142Z,36.16
2019-02-20T12:48:56.265Z,35.94
2019-02-20T12:49:56.320Z,35.84
2019-02-20T12:50:56.251Z,35.94
2019-02-20T12:51:56.374Z,35.69
2019-02-20T12:52:56.279Z,35.26
2019-02-20T12:53:56.587Z,35.13
2019-02-20T12:54:56.460Z,34.88